sensor_id;sensor_type;location;lat;lon;timestamp;temperature;humidity
44117;DHT22;29781;49.480;8.512;2023-12-28T00:00:24;6.10;99.90
44117;DHT22;29781;49.480;8.512;2023-12-28T00:02:50;6.20;99.90
44117;DHT22;29781;49.480;8.512;2023-12-28T00:05:15;6.30;99.90
44117;DHT22;29781;49.480;8.512;2023-12-28T00:07:41;6.30;99.90
44117;DHT22;29781;49.480;8.512;2023-12-28T00:10:07;6.40;99.90
44117;DHT22;29781;49.480;8.512;2023-12-28T00:12:32;6.40;99.90
44117;DHT22;29781;49.480;8.512;2023-12-28T00:14:58;6.50;99.90
44117;DHT22;29781;49.480;8.512;2023-12-28T00:17:23;6.50;99.90
44117;DHT22;29781;49.480;8.512;2023-12-28T00:19:49;6.60;99.90
44117;DHT22;29781;49.480;8.512;2023-12-28T00:22:14;6.70;99.90
44117;DHT22;29781;49.480;8.512;2023-12-28T00:24:40;6.70;99.90
44117;DHT22;29781;49.480;8.512;2023-12-28T00:27:05;6.80;99.90
44117;DHT22;29781;49.480;8.512;2023-12-28T00:29:31;6.80;99.90
44117;DHT22;29781;49.480;8.512;2023-12-28T00:31:57;6.80;99.90
44117;DHT22;29781;49.480;8.512;2023-12-28T00:34:23;6.80;99.90
44117;DHT22;29781;49.480;8.512;2023-12-28T00:36:48;6.80;99.90
44117;DHT22;29781;49.480;8.512;2023-12-28T00:39:14;6.90;99.90
44117;DHT22;29781;49.480;8.512;2023-12-28T00:41:40;6.80;99.90
44117;DHT22;29781;49.480;8.512;2023-12-28T00:44:05;6.70;99.90
44117;DHT22;29781;49.480;8.512;2023-12-28T00:46:35;6.70;99.90
44117;DHT22;29781;49.480;8.512;2023-12-28T00:49:00;6.60;99.90
44117;DHT22;29781;49.480;8.512;2023-12-28T00:51:26;6.50;99.90
44117;DHT22;29781;49.480;8.512;2023-12-28T00:53:51;6.40;99.90
44117;DHT22;29781;49.480;8.512;2023-12-28T00:56:17;6.40;99.90
44117;DHT22;29781;49.480;8.512;2023-12-28T00:58:43;6.40;99.90
44117;DHT22;29781;49.480;8.512;2023-12-28T01:01:09;6.50;99.90
44117;DHT22;29781;49.480;8.512;2023-12-28T01:03:35;6.60;99.90
44117;DHT22;29781;49.480;8.512;2023-12-28T01:06:00;6.70;99.90
44117;DHT22;29781;49.480;8.512;2023-12-28T01:08:26;6.90;99.90
44117;DHT22;29781;49.480;8.512;2023-12-28T01:10:52;7.00;99.90
44117;DHT22;29781;49.480;8.512;2023-12-28T01:13:17;7.10;99.90
44117;DHT22;29781;49.480;8.512;2023-12-28T01:15:44;7.20;99.90
44117;DHT22;29781;49.480;8.512;2023-12-28T01:18:09;7.20;99.90
44117;DHT22;29781;49.480;8.512;2023-12-28T01:20:35;7.20;99.90
44117;DHT22;29781;49.480;8.512;2023-12-28T01:23:01;7.20;99.90
44117;DHT22;29781;49.480;8.512;2023-12-28T01:25:26;7.10;99.90
44117;DHT22;29781;49.480;8.512;2023-12-28T01:27:52;7.00;99.90
44117;DHT22;29781;49.480;8.512;2023-12-28T01:30:17;7.10;99.90
44117;DHT22;29781;49.480;8.512;2023-12-28T01:32:43;7.00;99.90
44117;DHT22;29781;49.480;8.512;2023-12-28T01:35:08;6.90;99.90
44117;DHT22;29781;49.480;8.512;2023-12-28T01:37:34;6.90;99.90
44117;DHT22;29781;49.480;8.512;2023-12-28T01:40:00;6.80;99.90
44117;DHT22;29781;49.480;8.512;2023-12-28T01:42:26;6.80;99.90
44117;DHT22;29781;49.480;8.512;2023-12-28T01:44:52;6.90;99.90
44117;DHT22;29781;49.480;8.512;2023-12-28T01:47:18;7.00;99.90
44117;DHT22;29781;49.480;8.512;2023-12-28T01:49:44;7.20;99.90
44117;DHT22;29781;49.480;8.512;2023-12-28T01:52:10;7.50;99.90
44117;DHT22;29781;49.480;8.512;2023-12-28T01:54:37;7.90;99.90
44117;DHT22;29781;49.480;8.512;2023-12-28T01:57:03;8.10;99.90
44117;DHT22;29781;49.480;8.512;2023-12-28T01:59:30;8.40;99.90
44117;DHT22;29781;49.480;8.512;2023-12-28T02:01:55;8.60;99.90
44117;DHT22;29781;49.480;8.512;2023-12-28T02:04:21;8.80;99.90
44117;DHT22;29781;49.480;8.512;2023-12-28T02:06:58;9.00;99.90
44117;DHT22;29781;49.480;8.512;2023-12-28T02:09:25;9.10;99.90
44117;DHT22;29781;49.480;8.512;2023-12-28T02:11:51;9.20;99.90
44117;DHT22;29781;49.480;8.512;2023-12-28T02:14:17;9.20;99.90
44117;DHT22;29781;49.480;8.512;2023-12-28T02:16:50;9.30;99.90
44117;DHT22;29781;49.480;8.512;2023-12-28T02:19:31;9.40;99.90
44117;DHT22;29781;49.480;8.512;2023-12-28T02:21:59;9.50;99.90
44117;DHT22;29781;49.480;8.512;2023-12-28T02:24:25;9.50;99.90
44117;DHT22;29781;49.480;8.512;2023-12-28T02:26:50;9.60;99.90
44117;DHT22;29781;49.480;8.512;2023-12-28T02:29:16;9.60;99.90
44117;DHT22;29781;49.480;8.512;2023-12-28T02:31:58;9.70;99.90
44117;DHT22;29781;49.480;8.512;2023-12-28T02:34:29;9.70;99.90
44117;DHT22;29781;49.480;8.512;2023-12-28T02:36:57;9.70;99.90
44117;DHT22;29781;49.480;8.512;2023-12-28T02:39:25;9.60;99.90
44117;DHT22;29781;49.480;8.512;2023-12-28T02:41:51;9.70;99.90
44117;DHT22;29781;49.480;8.512;2023-12-28T02:44:19;9.70;99.90
44117;DHT22;29781;49.480;8.512;2023-12-28T02:46:44;9.80;99.90
44117;DHT22;29781;49.480;8.512;2023-12-28T02:49:10;9.80;99.90
44117;DHT22;29781;49.480;8.512;2023-12-28T02:51:37;9.90;99.90
44117;DHT22;29781;49.480;8.512;2023-12-28T02:54:02;9.90;99.90
44117;DHT22;29781;49.480;8.512;2023-12-28T02:56:28;10.00;99.90
44117;DHT22;29781;49.480;8.512;2023-12-28T02:58:53;10.00;99.90
44117;DHT22;29781;49.480;8.512;2023-12-28T03:01:19;10.00;99.90
44117;DHT22;29781;49.480;8.512;2023-12-28T03:03:44;10.10;99.90
44117;DHT22;29781;49.480;8.512;2023-12-28T03:06:10;10.10;99.90
44117;DHT22;29781;49.480;8.512;2023-12-28T03:08:35;10.10;99.90
44117;DHT22;29781;49.480;8.512;2023-12-28T03:11:01;10.10;99.90
44117;DHT22;29781;49.480;8.512;2023-12-28T03:13:26;10.20;99.90
44117;DHT22;29781;49.480;8.512;2023-12-28T03:15:52;10.10;99.90
44117;DHT22;29781;49.480;8.512;2023-12-28T03:18:18;10.10;99.90
44117;DHT22;29781;49.480;8.512;2023-12-28T03:20:43;10.10;99.90
44117;DHT22;29781;49.480;8.512;2023-12-28T03:23:11;10.20;99.90
44117;DHT22;29781;49.480;8.512;2023-12-28T03:25:36;10.20;99.90
44117;DHT22;29781;49.480;8.512;2023-12-28T03:28:02;10.20;99.90
44117;DHT22;29781;49.480;8.512;2023-12-28T03:30:27;10.20;99.90
44117;DHT22;29781;49.480;8.512;2023-12-28T03:32:53;10.20;99.90
44117;DHT22;29781;49.480;8.512;2023-12-28T03:35:18;10.20;99.90
44117;DHT22;29781;49.480;8.512;2023-12-28T03:37:44;10.20;99.90
44117;DHT22;29781;49.480;8.512;2023-12-28T03:40:10;10.30;99.90
44117;DHT22;29781;49.480;8.512;2023-12-28T03:42:36;10.20;99.90
44117;DHT22;29781;49.480;8.512;2023-12-28T03:45:01;10.30;99.90
44117;DHT22;29781;49.480;8.512;2023-12-28T03:47:27;10.30;99.90
44117;DHT22;29781;49.480;8.512;2023-12-28T03:49:52;10.30;99.90
44117;DHT22;29781;49.480;8.512;2023-12-28T03:52:18;10.30;99.90
44117;DHT22;29781;49.480;8.512;2023-12-28T03:54:43;10.20;99.90
44117;DHT22;29781;49.480;8.512;2023-12-28T03:57:09;10.20;99.90
44117;DHT22;29781;49.480;8.512;2023-12-28T03:59:35;10.30;99.90
44117;DHT22;29781;49.480;8.512;2023-12-28T04:02:01;10.20;99.90
44117;DHT22;29781;49.480;8.512;2023-12-28T04:04:26;10.20;99.90
44117;DHT22;29781;49.480;8.512;2023-12-28T04:06:52;10.20;99.90
44117;DHT22;29781;49.480;8.512;2023-12-28T04:09:17;10.20;99.90
44117;DHT22;29781;49.480;8.512;2023-12-28T04:11:43;10.10;99.90
44117;DHT22;29781;49.480;8.512;2023-12-28T04:14:08;10.10;99.90
44117;DHT22;29781;49.480;8.512;2023-12-28T04:16:34;10.10;99.90
44117;DHT22;29781;49.480;8.512;2023-12-28T04:18:59;10.00;99.90
44117;DHT22;29781;49.480;8.512;2023-12-28T04:21:25;9.90;99.90
44117;DHT22;29781;49.480;8.512;2023-12-28T04:23:50;9.90;99.90
44117;DHT22;29781;49.480;8.512;2023-12-28T04:26:18;10.00;99.90
44117;DHT22;29781;49.480;8.512;2023-12-28T04:28:45;10.00;99.90
44117;DHT22;29781;49.480;8.512;2023-12-28T04:31:11;10.00;99.90
44117;DHT22;29781;49.480;8.512;2023-12-28T04:33:36;9.90;99.90
44117;DHT22;29781;49.480;8.512;2023-12-28T04:36:03;9.90;99.90
44117;DHT22;29781;49.480;8.512;2023-12-28T04:38:29;10.00;99.90
44117;DHT22;29781;49.480;8.512;2023-12-28T04:40:55;10.00;99.90
44117;DHT22;29781;49.480;8.512;2023-12-28T04:43:21;10.00;99.90
44117;DHT22;29781;49.480;8.512;2023-12-28T04:45:49;10.00;99.90
44117;DHT22;29781;49.480;8.512;2023-12-28T04:48:15;10.00;99.90
44117;DHT22;29781;49.480;8.512;2023-12-28T04:50:40;10.00;99.90
44117;DHT22;29781;49.480;8.512;2023-12-28T04:53:05;10.00;99.90
44117;DHT22;29781;49.480;8.512;2023-12-28T04:55:31;10.00;99.90
44117;DHT22;29781;49.480;8.512;2023-12-28T04:57:56;10.00;99.90
44117;DHT22;29781;49.480;8.512;2023-12-28T05:00:22;10.00;99.90
44117;DHT22;29781;49.480;8.512;2023-12-28T05:02:47;10.10;99.90
44117;DHT22;29781;49.480;8.512;2023-12-28T05:05:13;10.10;99.90
44117;DHT22;29781;49.480;8.512;2023-12-28T05:07:39;10.10;99.90
44117;DHT22;29781;49.480;8.512;2023-12-28T05:10:05;10.10;99.90
44117;DHT22;29781;49.480;8.512;2023-12-28T05:12:30;10.10;99.90
44117;DHT22;29781;49.480;8.512;2023-12-28T05:14:56;10.00;99.90
44117;DHT22;29781;49.480;8.512;2023-12-28T05:17:21;10.00;99.90
44117;DHT22;29781;49.480;8.512;2023-12-28T05:19:47;9.90;99.90
44117;DHT22;29781;49.480;8.512;2023-12-28T05:22:12;9.90;99.90
44117;DHT22;29781;49.480;8.512;2023-12-28T05:24:38;10.00;99.90
44117;DHT22;29781;49.480;8.512;2023-12-28T05:27:03;10.00;99.90
44117;DHT22;29781;49.480;8.512;2023-12-28T05:29:29;10.00;99.90
44117;DHT22;29781;49.480;8.512;2023-12-28T05:31:54;10.00;99.90
44117;DHT22;29781;49.480;8.512;2023-12-28T05:34:20;9.90;99.90
44117;DHT22;29781;49.480;8.512;2023-12-28T05:36:45;10.00;99.90
44117;DHT22;29781;49.480;8.512;2023-12-28T05:39:11;10.00;99.90
44117;DHT22;29781;49.480;8.512;2023-12-28T05:41:39;9.90;99.90
44117;DHT22;29781;49.480;8.512;2023-12-28T05:44:05;9.90;99.90
44117;DHT22;29781;49.480;8.512;2023-12-28T05:46:30;9.90;99.90
44117;DHT22;29781;49.480;8.512;2023-12-28T05:48:56;9.90;99.90
44117;DHT22;29781;49.480;8.512;2023-12-28T05:51:21;9.80;99.90
44117;DHT22;29781;49.480;8.512;2023-12-28T05:53:47;9.70;99.90
44117;DHT22;29781;49.480;8.512;2023-12-28T05:56:12;9.70;99.90
44117;DHT22;29781;49.480;8.512;2023-12-28T05:58:38;9.80;99.90
44117;DHT22;29781;49.480;8.512;2023-12-28T06:01:04;9.70;99.90
44117;DHT22;29781;49.480;8.512;2023-12-28T06:03:33;9.70;99.90
44117;DHT22;29781;49.480;8.512;2023-12-28T06:05:59;9.70;99.90
44117;DHT22;29781;49.480;8.512;2023-12-28T06:08:25;9.70;99.90
44117;DHT22;29781;49.480;8.512;2023-12-28T06:10:50;9.70;99.90
44117;DHT22;29781;49.480;8.512;2023-12-28T06:13:16;9.70;99.90
44117;DHT22;29781;49.480;8.512;2023-12-28T06:15:41;9.70;99.90
44117;DHT22;29781;49.480;8.512;2023-12-28T06:18:07;9.80;99.90
44117;DHT22;29781;49.480;8.512;2023-12-28T06:20:33;9.80;99.90
44117;DHT22;29781;49.480;8.512;2023-12-28T06:22:58;9.90;99.90
44117;DHT22;29781;49.480;8.512;2023-12-28T06:25:24;9.90;99.90
44117;DHT22;29781;49.480;8.512;2023-12-28T06:27:49;9.90;99.90
44117;DHT22;29781;49.480;8.512;2023-12-28T06:30:15;9.90;99.90
44117;DHT22;29781;49.480;8.512;2023-12-28T06:32:40;9.90;99.90
44117;DHT22;29781;49.480;8.512;2023-12-28T06:35:07;9.90;99.90
44117;DHT22;29781;49.480;8.512;2023-12-28T06:37:33;9.90;99.90
44117;DHT22;29781;49.480;8.512;2023-12-28T06:39:58;9.90;99.90
44117;DHT22;29781;49.480;8.512;2023-12-28T06:42:24;9.90;99.90
44117;DHT22;29781;49.480;8.512;2023-12-28T06:44:49;10.00;99.90
44117;DHT22;29781;49.480;8.512;2023-12-28T06:47:15;9.90;99.90
44117;DHT22;29781;49.480;8.512;2023-12-28T06:49:40;9.90;99.90
44117;DHT22;29781;49.480;8.512;2023-12-28T06:52:06;9.90;99.90
44117;DHT22;29781;49.480;8.512;2023-12-28T06:54:32;9.90;99.90
44117;DHT22;29781;49.480;8.512;2023-12-28T06:56:57;10.00;99.90
44117;DHT22;29781;49.480;8.512;2023-12-28T06:59:22;10.00;99.90
44117;DHT22;29781;49.480;8.512;2023-12-28T07:01:48;10.00;99.90
44117;DHT22;29781;49.480;8.512;2023-12-28T07:04:14;10.00;99.90
44117;DHT22;29781;49.480;8.512;2023-12-28T07:06:40;10.00;99.90
44117;DHT22;29781;49.480;8.512;2023-12-28T07:09:05;9.90;99.90
44117;DHT22;29781;49.480;8.512;2023-12-28T07:11:31;9.90;99.90
44117;DHT22;29781;49.480;8.512;2023-12-28T07:13:57;10.00;99.90
44117;DHT22;29781;49.480;8.512;2023-12-28T07:16:22;10.00;99.90
44117;DHT22;29781;49.480;8.512;2023-12-28T07:18:48;10.00;99.90
44117;DHT22;29781;49.480;8.512;2023-12-28T07:21:13;10.00;99.90
44117;DHT22;29781;49.480;8.512;2023-12-28T07:23:39;10.00;99.90
44117;DHT22;29781;49.480;8.512;2023-12-28T07:26:04;10.00;99.90
44117;DHT22;29781;49.480;8.512;2023-12-28T07:28:30;10.00;99.90
44117;DHT22;29781;49.480;8.512;2023-12-28T07:30:56;10.00;99.90
44117;DHT22;29781;49.480;8.512;2023-12-28T07:33:21;10.00;99.90
44117;DHT22;29781;49.480;8.512;2023-12-28T07:35:47;10.00;99.90
44117;DHT22;29781;49.480;8.512;2023-12-28T07:38:12;9.90;99.90
44117;DHT22;29781;49.480;8.512;2023-12-28T07:40:38;10.00;99.90
44117;DHT22;29781;49.480;8.512;2023-12-28T07:43:04;10.00;99.90
44117;DHT22;29781;49.480;8.512;2023-12-28T07:45:29;10.00;99.90
44117;DHT22;29781;49.480;8.512;2023-12-28T07:47:55;10.00;99.90
44117;DHT22;29781;49.480;8.512;2023-12-28T07:50:21;10.00;99.90
44117;DHT22;29781;49.480;8.512;2023-12-28T07:52:47;10.00;99.90
44117;DHT22;29781;49.480;8.512;2023-12-28T07:55:14;10.10;99.90
44117;DHT22;29781;49.480;8.512;2023-12-28T07:57:39;10.00;99.90
44117;DHT22;29781;49.480;8.512;2023-12-28T08:00:06;10.00;99.90
44117;DHT22;29781;49.480;8.512;2023-12-28T08:02:32;10.00;99.90
44117;DHT22;29781;49.480;8.512;2023-12-28T08:04:58;10.00;99.90
44117;DHT22;29781;49.480;8.512;2023-12-28T08:07:24;10.00;99.90
44117;DHT22;29781;49.480;8.512;2023-12-28T08:09:49;10.00;99.90
44117;DHT22;29781;49.480;8.512;2023-12-28T08:12:15;10.00;99.90
44117;DHT22;29781;49.480;8.512;2023-12-28T08:14:40;10.00;99.90
44117;DHT22;29781;49.480;8.512;2023-12-28T08:17:06;10.00;99.90
44117;DHT22;29781;49.480;8.512;2023-12-28T08:19:31;10.00;99.90
44117;DHT22;29781;49.480;8.512;2023-12-28T08:21:57;10.10;99.90
44117;DHT22;29781;49.480;8.512;2023-12-28T08:24:22;10.10;99.90
44117;DHT22;29781;49.480;8.512;2023-12-28T08:26:48;10.10;99.90
44117;DHT22;29781;49.480;8.512;2023-12-28T08:29:13;10.10;99.90
44117;DHT22;29781;49.480;8.512;2023-12-28T08:31:39;10.00;99.90
44117;DHT22;29781;49.480;8.512;2023-12-28T08:34:04;10.00;99.90
44117;DHT22;29781;49.480;8.512;2023-12-28T08:36:30;10.10;99.90
44117;DHT22;29781;49.480;8.512;2023-12-28T08:38:55;10.10;99.90
44117;DHT22;29781;49.480;8.512;2023-12-28T08:41:22;10.10;99.90
44117;DHT22;29781;49.480;8.512;2023-12-28T08:43:49;10.10;99.90
44117;DHT22;29781;49.480;8.512;2023-12-28T08:46:16;10.10;99.90
44117;DHT22;29781;49.480;8.512;2023-12-28T08:48:42;10.10;99.90
44117;DHT22;29781;49.480;8.512;2023-12-28T08:51:09;10.20;99.90
44117;DHT22;29781;49.480;8.512;2023-12-28T08:53:34;10.20;99.90
44117;DHT22;29781;49.480;8.512;2023-12-28T08:56:00;10.20;99.90
44117;DHT22;29781;49.480;8.512;2023-12-28T08:58:25;10.20;99.90
44117;DHT22;29781;49.480;8.512;2023-12-28T09:00:51;10.30;99.90
44117;DHT22;29781;49.480;8.512;2023-12-28T09:03:16;10.30;99.90
44117;DHT22;29781;49.480;8.512;2023-12-28T09:05:42;10.30;99.90
44117;DHT22;29781;49.480;8.512;2023-12-28T09:08:08;10.30;99.90
44117;DHT22;29781;49.480;8.512;2023-12-28T09:10:34;10.30;99.90
44117;DHT22;29781;49.480;8.512;2023-12-28T09:12:59;10.30;99.90
44117;DHT22;29781;49.480;8.512;2023-12-28T09:15:25;10.30;99.90
44117;DHT22;29781;49.480;8.512;2023-12-28T09:17:50;10.30;99.90
44117;DHT22;29781;49.480;8.512;2023-12-28T09:20:16;10.30;99.90
44117;DHT22;29781;49.480;8.512;2023-12-28T09:22:41;10.30;99.90
44117;DHT22;29781;49.480;8.512;2023-12-28T09:25:07;10.30;99.90
44117;DHT22;29781;49.480;8.512;2023-12-28T09:27:33;10.50;99.90
44117;DHT22;29781;49.480;8.512;2023-12-28T09:29:58;10.40;99.90
44117;DHT22;29781;49.480;8.512;2023-12-28T09:32:24;10.40;99.90
44117;DHT22;29781;49.480;8.512;2023-12-28T09:34:49;10.40;99.90
44117;DHT22;29781;49.480;8.512;2023-12-28T09:37:15;10.40;99.90
44117;DHT22;29781;49.480;8.512;2023-12-28T09:39:40;10.40;99.90
44117;DHT22;29781;49.480;8.512;2023-12-28T09:42:17;10.40;99.90
44117;DHT22;29781;49.480;8.512;2023-12-28T09:44:46;10.40;99.90
44117;DHT22;29781;49.480;8.512;2023-12-28T09:47:12;10.40;99.90
44117;DHT22;29781;49.480;8.512;2023-12-28T09:49:40;10.40;99.90
44117;DHT22;29781;49.480;8.512;2023-12-28T09:52:07;10.40;99.90
44117;DHT22;29781;49.480;8.512;2023-12-28T09:54:34;10.40;99.90
44117;DHT22;29781;49.480;8.512;2023-12-28T09:56:59;10.40;99.90
44117;DHT22;29781;49.480;8.512;2023-12-28T09:59:26;10.40;99.90
44117;DHT22;29781;49.480;8.512;2023-12-28T10:01:54;10.40;99.90
44117;DHT22;29781;49.480;8.512;2023-12-28T10:04:21;10.30;99.90
44117;DHT22;29781;49.480;8.512;2023-12-28T10:06:47;10.30;99.90
44117;DHT22;29781;49.480;8.512;2023-12-28T10:09:12;10.30;99.90
44117;DHT22;29781;49.480;8.512;2023-12-28T10:11:38;10.30;99.90
44117;DHT22;29781;49.480;8.512;2023-12-28T10:14:03;10.30;99.90
44117;DHT22;29781;49.480;8.512;2023-12-28T10:16:30;10.30;99.90
44117;DHT22;29781;49.480;8.512;2023-12-28T10:18:56;10.30;99.90
44117;DHT22;29781;49.480;8.512;2023-12-28T10:21:23;10.30;99.90
44117;DHT22;29781;49.480;8.512;2023-12-28T10:23:49;10.30;99.90
44117;DHT22;29781;49.480;8.512;2023-12-28T10:26:17;10.30;99.90
44117;DHT22;29781;49.480;8.512;2023-12-28T10:28:42;10.40;99.90
44117;DHT22;29781;49.480;8.512;2023-12-28T10:31:09;10.40;99.90
44117;DHT22;29781;49.480;8.512;2023-12-28T10:33:35;10.50;99.90
44117;DHT22;29781;49.480;8.512;2023-12-28T10:36:05;10.50;99.90
44117;DHT22;29781;49.480;8.512;2023-12-28T10:38:34;10.40;99.90
44117;DHT22;29781;49.480;8.512;2023-12-28T10:41:07;10.50;99.90
44117;DHT22;29781;49.480;8.512;2023-12-28T10:43:45;10.50;99.90
44117;DHT22;29781;49.480;8.512;2023-12-28T10:46:30;10.60;99.90
44117;DHT22;29781;49.480;8.512;2023-12-28T10:49:05;10.60;99.90
44117;DHT22;29781;49.480;8.512;2023-12-28T10:51:33;10.60;99.90
44117;DHT22;29781;49.480;8.512;2023-12-28T10:54:14;10.70;99.90
44117;DHT22;29781;49.480;8.512;2023-12-28T10:56:45;10.70;99.90
44117;DHT22;29781;49.480;8.512;2023-12-28T11:01:59;10.70;99.90
44117;DHT22;29781;49.480;8.512;2023-12-28T11:04:41;10.70;99.90
44117;DHT22;29781;49.480;8.512;2023-12-28T11:07:09;10.80;99.90
44117;DHT22;29781;49.480;8.512;2023-12-28T11:09:37;10.80;99.90
44117;DHT22;29781;49.480;8.512;2023-12-28T11:12:04;10.70;99.90
44117;DHT22;29781;49.480;8.512;2023-12-28T11:14:33;10.80;99.90
44117;DHT22;29781;49.480;8.512;2023-12-28T11:17:00;10.70;99.90
44117;DHT22;29781;49.480;8.512;2023-12-28T11:19:28;10.70;99.90
44117;DHT22;29781;49.480;8.512;2023-12-28T11:21:54;10.80;99.90
44117;DHT22;29781;49.480;8.512;2023-12-28T11:24:22;10.90;99.90
44117;DHT22;29781;49.480;8.512;2023-12-28T11:26:55;10.90;99.90
44117;DHT22;29781;49.480;8.512;2023-12-28T11:29:21;10.80;99.90
44117;DHT22;29781;49.480;8.512;2023-12-28T11:31:53;10.70;99.90
44117;DHT22;29781;49.480;8.512;2023-12-28T11:34:25;10.70;99.90
44117;DHT22;29781;49.480;8.512;2023-12-28T11:36:51;10.70;99.90
44117;DHT22;29781;49.480;8.512;2023-12-28T11:39:26;10.60;99.90
44117;DHT22;29781;49.480;8.512;2023-12-28T11:42:03;10.60;99.90
44117;DHT22;29781;49.480;8.512;2023-12-28T11:44:29;10.50;99.90
44117;DHT22;29781;49.480;8.512;2023-12-28T11:46:55;10.50;99.90
44117;DHT22;29781;49.480;8.512;2023-12-28T11:49:26;10.40;99.90
44117;DHT22;29781;49.480;8.512;2023-12-28T11:51:57;10.50;99.90
44117;DHT22;29781;49.480;8.512;2023-12-28T11:54:24;10.50;99.90
44117;DHT22;29781;49.480;8.512;2023-12-28T11:56:50;10.40;99.90
44117;DHT22;29781;49.480;8.512;2023-12-28T11:59:16;10.30;99.90
44117;DHT22;29781;49.480;8.512;2023-12-28T12:01:42;10.30;99.90
44117;DHT22;29781;49.480;8.512;2023-12-28T12:04:07;10.20;99.90
44117;DHT22;29781;49.480;8.512;2023-12-28T12:06:33;10.20;99.90
44117;DHT22;29781;49.480;8.512;2023-12-28T12:08:58;10.20;99.90
44117;DHT22;29781;49.480;8.512;2023-12-28T12:11:24;10.10;99.90
44117;DHT22;29781;49.480;8.512;2023-12-28T12:13:51;10.10;99.90
44117;DHT22;29781;49.480;8.512;2023-12-28T12:16:17;10.00;99.90
44117;DHT22;29781;49.480;8.512;2023-12-28T12:18:43;10.10;99.90
44117;DHT22;29781;49.480;8.512;2023-12-28T12:21:08;10.00;99.90
44117;DHT22;29781;49.480;8.512;2023-12-28T12:23:34;10.00;99.90
44117;DHT22;29781;49.480;8.512;2023-12-28T12:26:00;9.90;99.90
44117;DHT22;29781;49.480;8.512;2023-12-28T12:28:25;9.80;99.90
44117;DHT22;29781;49.480;8.512;2023-12-28T12:30:54;9.70;99.90
44117;DHT22;29781;49.480;8.512;2023-12-28T12:33:21;9.70;99.90
44117;DHT22;29781;49.480;8.512;2023-12-28T12:35:47;9.60;99.90
44117;DHT22;29781;49.480;8.512;2023-12-28T12:38:13;9.60;99.90
44117;DHT22;29781;49.480;8.512;2023-12-28T12:40:38;9.60;99.90
44117;DHT22;29781;49.480;8.512;2023-12-28T12:43:06;9.60;99.90
44117;DHT22;29781;49.480;8.512;2023-12-28T12:45:34;9.70;99.90
44117;DHT22;29781;49.480;8.512;2023-12-28T12:48:02;9.60;99.90
44117;DHT22;29781;49.480;8.512;2023-12-28T12:50:28;9.60;99.90
44117;DHT22;29781;49.480;8.512;2023-12-28T12:52:53;9.50;99.90
44117;DHT22;29781;49.480;8.512;2023-12-28T12:55:19;9.50;99.90
44117;DHT22;29781;49.480;8.512;2023-12-28T12:57:45;9.50;99.90
44117;DHT22;29781;49.480;8.512;2023-12-28T13:00:11;9.40;99.90
44117;DHT22;29781;49.480;8.512;2023-12-28T13:02:37;9.40;99.90
44117;DHT22;29781;49.480;8.512;2023-12-28T13:05:03;9.30;99.90
44117;DHT22;29781;49.480;8.512;2023-12-28T13:07:32;9.40;99.90
44117;DHT22;29781;49.480;8.512;2023-12-28T13:09:57;9.30;99.90
44117;DHT22;29781;49.480;8.512;2023-12-28T13:12:23;9.30;99.90
44117;DHT22;29781;49.480;8.512;2023-12-28T13:14:49;9.30;99.90
44117;DHT22;29781;49.480;8.512;2023-12-28T13:17:15;9.30;99.90
44117;DHT22;29781;49.480;8.512;2023-12-28T13:19:42;9.30;99.90
44117;DHT22;29781;49.480;8.512;2023-12-28T13:22:07;9.30;99.90
44117;DHT22;29781;49.480;8.512;2023-12-28T13:24:33;9.30;99.90
44117;DHT22;29781;49.480;8.512;2023-12-28T13:26:58;9.30;99.90
44117;DHT22;29781;49.480;8.512;2023-12-28T13:29:24;9.30;99.90
44117;DHT22;29781;49.480;8.512;2023-12-28T13:31:49;9.40;99.90
44117;DHT22;29781;49.480;8.512;2023-12-28T13:34:17;9.40;99.90
44117;DHT22;29781;49.480;8.512;2023-12-28T13:36:44;9.40;99.90
44117;DHT22;29781;49.480;8.512;2023-12-28T13:39:10;9.50;99.90
44117;DHT22;29781;49.480;8.512;2023-12-28T13:41:40;9.50;99.90
44117;DHT22;29781;49.480;8.512;2023-12-28T13:44:06;9.50;99.90
44117;DHT22;29781;49.480;8.512;2023-12-28T13:46:36;9.60;99.90
44117;DHT22;29781;49.480;8.512;2023-12-28T13:49:02;9.60;99.90
44117;DHT22;29781;49.480;8.512;2023-12-28T13:51:29;9.60;99.90
44117;DHT22;29781;49.480;8.512;2023-12-28T13:53:55;9.50;99.90
44117;DHT22;29781;49.480;8.512;2023-12-28T13:56:20;9.60;99.90
44117;DHT22;29781;49.480;8.512;2023-12-28T13:58:46;9.60;99.90
44117;DHT22;29781;49.480;8.512;2023-12-28T14:01:12;9.50;99.90
44117;DHT22;29781;49.480;8.512;2023-12-28T14:03:38;9.50;99.90
44117;DHT22;29781;49.480;8.512;2023-12-28T14:06:04;9.60;99.90
44117;DHT22;29781;49.480;8.512;2023-12-28T14:08:30;9.60;99.90
44117;DHT22;29781;49.480;8.512;2023-12-28T14:10:55;9.60;99.90
44117;DHT22;29781;49.480;8.512;2023-12-28T14:13:21;9.70;99.90
44117;DHT22;29781;49.480;8.512;2023-12-28T14:15:47;9.70;99.90
44117;DHT22;29781;49.480;8.512;2023-12-28T14:18:12;9.70;99.90
44117;DHT22;29781;49.480;8.512;2023-12-28T14:20:38;9.80;99.90
44117;DHT22;29781;49.480;8.512;2023-12-28T14:23:04;9.80;99.90
44117;DHT22;29781;49.480;8.512;2023-12-28T14:25:30;9.80;99.90
44117;DHT22;29781;49.480;8.512;2023-12-28T14:27:56;9.80;99.90
44117;DHT22;29781;49.480;8.512;2023-12-28T14:30:22;9.80;99.90
44117;DHT22;29781;49.480;8.512;2023-12-28T14:32:48;9.80;99.90
44117;DHT22;29781;49.480;8.512;2023-12-28T14:35:14;9.80;99.90
44117;DHT22;29781;49.480;8.512;2023-12-28T14:37:46;9.80;99.90
44117;DHT22;29781;49.480;8.512;2023-12-28T14:40:11;9.90;99.90
44117;DHT22;29781;49.480;8.512;2023-12-28T14:42:38;9.90;99.90
44117;DHT22;29781;49.480;8.512;2023-12-28T14:45:04;9.90;99.90
44117;DHT22;29781;49.480;8.512;2023-12-28T14:47:30;10.00;99.90
44117;DHT22;29781;49.480;8.512;2023-12-28T14:49:56;10.00;99.90
44117;DHT22;29781;49.480;8.512;2023-12-28T14:52:23;10.00;99.90
44117;DHT22;29781;49.480;8.512;2023-12-28T14:54:49;10.00;99.90
44117;DHT22;29781;49.480;8.512;2023-12-28T14:57:19;10.00;99.90
44117;DHT22;29781;49.480;8.512;2023-12-28T14:59:45;10.10;99.90
44117;DHT22;29781;49.480;8.512;2023-12-28T15:02:10;10.00;99.90
44117;DHT22;29781;49.480;8.512;2023-12-28T15:04:35;10.10;99.90
44117;DHT22;29781;49.480;8.512;2023-12-28T15:07:03;10.00;99.90
44117;DHT22;29781;49.480;8.512;2023-12-28T15:09:29;10.00;99.90
44117;DHT22;29781;49.480;8.512;2023-12-28T15:11:55;10.00;99.90
44117;DHT22;29781;49.480;8.512;2023-12-28T15:14:21;10.00;99.90
44117;DHT22;29781;49.480;8.512;2023-12-28T15:16:47;10.00;99.90
44117;DHT22;29781;49.480;8.512;2023-12-28T15:19:13;10.00;99.90
44117;DHT22;29781;49.480;8.512;2023-12-28T15:21:39;10.00;99.90
44117;DHT22;29781;49.480;8.512;2023-12-28T15:24:05;10.00;99.90
44117;DHT22;29781;49.480;8.512;2023-12-28T15:26:31;9.90;99.90
44117;DHT22;29781;49.480;8.512;2023-12-28T15:28:56;9.90;99.90
44117;DHT22;29781;49.480;8.512;2023-12-28T15:31:22;9.90;99.90
44117;DHT22;29781;49.480;8.512;2023-12-28T15:33:48;9.80;99.90